createdAt,value
2018-07-07T00:01:13.191Z,17.82
2018-07-07T00:03:41.910Z,17.80
2018-07-07T00:06:10.438Z,17.75
2018-07-07T00:08:39.006Z,17.71
2018-07-07T00:11:07.714Z,17.68
2018-07-07T00:13:36.290Z,17.66
2018-07-07T00:16:04.839Z,17.63
2018-07-07T00:18:33.327Z,17.59
2018-07-07T00:21:01.991Z,17.54
2018-07-07T00:23:30.617Z,17.52
2018-07-07T00:25:59.359Z,17.47
2018-07-07T00:28:28.005Z,17.42
2018-07-07T00:30:56.529Z,17.37
2018-07-07T00:33:25.209Z,17.34
2018-07-07T00:35:53.707Z,17.32
2018-07-07T00:38:22.395Z,17.30
2018-07-07T00:40:50.995Z,17.24
2018-07-07T00:43:19.562Z,17.21
2018-07-07T00:45:48.179Z,17.20
2018-07-07T00:48:16.811Z,17.15
2018-07-07T00:50:45.561Z,17.13
2018-07-07T00:53:14.180Z,17.10
2018-07-07T00:55:42.867Z,17.04
2018-07-07T00:58:11.555Z,17.03
2018-07-07T01:00:49.168Z,17.00
2018-07-07T01:03:17.935Z,16.95
2018-07-07T01:05:47.798Z,16.91
2018-07-07T01:08:17.219Z,16.86
2018-07-07T01:10:46.041Z,16.85
2018-07-07T01:13:15.278Z,16.83
2018-07-07T01:15:43.918Z,16.76
2018-07-07T01:18:12.604Z,16.75
2018-07-07T01:20:41.291Z,16.72
2018-07-07T01:23:09.975Z,16.70
2018-07-07T01:25:38.661Z,16.70
2018-07-07T01:28:07.518Z,16.65
2018-07-07T01:30:36.092Z,16.60
2018-07-07T01:33:04.666Z,16.59
2018-07-07T01:35:33.303Z,16.53
2018-07-07T01:38:01.881Z,16.51
2018-07-07T01:40:30.495Z,16.46
2018-07-07T01:42:59.052Z,16.42
2018-07-07T01:45:27.646Z,16.42
2018-07-07T01:47:56.315Z,16.40
2018-07-07T01:50:25.274Z,16.29
2018-07-07T01:52:53.838Z,16.26
2018-07-07T01:55:22.435Z,16.27
2018-07-07T01:57:51.011Z,16.26
2018-07-07T02:00:19.554Z,16.25
2018-07-07T02:02:48.196Z,16.27
2018-07-07T02:05:16.913Z,16.30
2018-07-07T02:07:45.491Z,16.32
2018-07-07T02:10:14.016Z,16.34
2018-07-07T02:12:42.587Z,16.35
2018-07-07T02:15:11.182Z,16.32
2018-07-07T02:17:40.515Z,16.28
2018-07-07T02:20:09.225Z,16.31
2018-07-07T02:22:38.627Z,16.31
2018-07-07T02:25:07.315Z,16.33
2018-07-07T02:27:35.998Z,16.33
2018-07-07T02:30:04.989Z,16.29
2018-07-07T02:32:33.675Z,16.27
2018-07-07T02:35:02.361Z,16.27
2018-07-07T02:37:30.944Z,16.25
2018-07-07T02:39:59.639Z,16.24
2018-07-07T02:42:28.259Z,16.23
2018-07-07T02:44:56.898Z,16.22
2018-07-07T02:47:25.583Z,16.22
2018-07-07T02:49:54.107Z,16.20
2018-07-07T02:52:22.748Z,16.17
2018-07-07T02:54:51.438Z,16.12
2018-07-07T02:57:20.222Z,16.08
2018-07-07T02:59:48.906Z,16.03
2018-07-07T03:02:17.592Z,16.00
2018-07-07T03:04:46.195Z,15.94
2018-07-07T03:07:14.697Z,15.87
2018-07-07T03:09:43.286Z,15.82
2018-07-07T03:12:11.926Z,15.76
2018-07-07T03:14:40.609Z,15.71
2018-07-07T03:17:09.103Z,15.66
2018-07-07T03:19:37.678Z,15.54
2018-07-07T03:22:06.736Z,15.56
2018-07-07T03:24:35.271Z,15.50
2018-07-07T03:27:03.876Z,15.48
2018-07-07T03:29:32.477Z,15.48
2018-07-07T03:32:01.202Z,15.45
2018-07-07T03:34:29.886Z,15.42
2018-07-07T03:36:58.584Z,15.40
2018-07-07T03:39:27.309Z,15.37
2018-07-07T03:41:55.941Z,15.36
2018-07-07T03:44:24.487Z,15.32
2018-07-07T03:46:53.107Z,15.24
2018-07-07T03:49:21.742Z,15.24
2018-07-07T03:51:50.191Z,15.24
2018-07-07T03:54:18.754Z,15.25
2018-07-07T03:56:47.420Z,15.26
2018-07-07T03:59:16.019Z,15.25
2018-07-07T04:01:44.560Z,15.28
2018-07-07T04:04:13.700Z,15.27
2018-07-07T04:06:42.384Z,15.28
2018-07-07T04:09:11.071Z,15.28
2018-07-07T04:11:39.719Z,15.28
2018-07-07T04:14:08.343Z,15.32
2018-07-07T04:16:36.870Z,15.32
2018-07-07T04:19:05.505Z,15.32
2018-07-07T04:21:34.090Z,15.33
2018-07-07T04:24:02.703Z,15.35
2018-07-07T04:26:31.371Z,15.34
2018-07-07T04:29:00.467Z,15.31
2018-07-07T04:31:29.775Z,15.31
2018-07-07T04:33:58.386Z,15.40
2018-07-07T04:36:27.019Z,15.42
2018-07-07T04:38:55.584Z,15.45
2018-07-07T04:41:24.082Z,15.57
2018-07-07T04:43:52.706Z,15.63
2018-07-07T04:46:21.283Z,15.75
2018-07-07T04:48:49.938Z,15.88
2018-07-07T04:51:18.546Z,16.05
2018-07-07T04:53:47.111Z,16.22
2018-07-07T04:56:15.719Z,16.38
2018-07-07T04:58:44.212Z,16.53
2018-07-07T05:01:12.847Z,16.66
2018-07-07T05:03:41.907Z,16.84
2018-07-07T05:06:11.139Z,16.99
2018-07-07T05:08:39.825Z,17.13
2018-07-07T05:11:08.574Z,17.27
2018-07-07T05:13:37.219Z,17.36
2018-07-07T05:16:05.983Z,17.44
2018-07-07T05:18:34.772Z,17.57
2018-07-07T05:21:04.167Z,17.69
2018-07-07T05:23:32.687Z,17.82
2018-07-07T05:26:01.337Z,17.98
2018-07-07T05:28:30.126Z,18.12
2018-07-07T05:30:58.722Z,18.20
2018-07-07T05:33:27.496Z,18.28
2018-07-07T05:35:56.144Z,18.41
2018-07-07T05:38:24.718Z,18.48
2018-07-07T05:40:53.656Z,18.52
2018-07-07T05:43:22.187Z,18.62
2018-07-07T05:45:50.823Z,18.75
2018-07-07T05:48:19.448Z,18.84
2018-07-07T05:50:48.036Z,18.98
2018-07-07T05:53:16.670Z,19.05
2018-07-07T05:55:45.274Z,19.09
2018-07-07T05:58:13.897Z,19.16
2018-07-07T06:00:42.497Z,19.24
2018-07-07T06:03:11.105Z,19.33
2018-07-07T06:05:39.795Z,19.37
2018-07-07T06:08:08.348Z,19.43
2018-07-07T06:10:36.901Z,19.53
2018-07-07T06:13:05.808Z,19.57
2018-07-07T06:15:34.429Z,19.61
2018-07-07T06:18:02.999Z,19.70
2018-07-07T06:20:31.596Z,19.76
2018-07-07T06:23:00.244Z,19.63
2018-07-07T06:25:29.171Z,19.68
2018-07-07T06:27:58.207Z,19.76
2018-07-07T06:30:26.847Z,19.82
2018-07-07T06:32:55.534Z,19.99
2018-07-07T06:35:24.267Z,20.08
2018-07-07T06:37:53.231Z,20.09
2018-07-07T06:40:21.829Z,20.08
2018-07-07T06:42:50.431Z,20.11
2018-07-07T06:45:19.164Z,20.24
2018-07-07T06:47:48.497Z,20.38
2018-07-07T06:50:17.151Z,20.36
2018-07-07T06:52:45.835Z,20.47
2018-07-07T06:55:14.359Z,20.54
2018-07-07T06:57:43.001Z,20.59
2018-07-07T07:00:11.686Z,20.58
2018-07-07T07:02:40.209Z,20.67
2018-07-07T07:05:08.814Z,20.75
2018-07-07T07:07:37.328Z,20.71
2018-07-07T07:10:05.862Z,20.81
2018-07-07T07:12:34.442Z,20.94
2018-07-07T07:15:03.082Z,21.06
2018-07-07T07:17:31.664Z,21.16
2018-07-07T07:20:00.205Z,21.35
2018-07-07T07:22:28.829Z,21.51
2018-07-07T07:24:57.411Z,21.42
2018-07-07T07:27:25.996Z,21.48
2018-07-07T07:29:54.760Z,21.51
2018-07-07T07:32:23.469Z,21.50
2018-07-07T07:34:52.154Z,21.53
2018-07-07T07:37:20.736Z,21.61
2018-07-07T07:39:49.302Z,21.63
2018-07-07T07:42:17.909Z,21.63
2018-07-07T07:44:46.426Z,21.70
2018-07-07T07:47:15.118Z,21.84
2018-07-07T07:49:43.735Z,22.01
2018-07-07T07:52:12.442Z,22.05
2018-07-07T07:54:40.926Z,22.31
2018-07-07T07:57:09.439Z,22.37
2018-07-07T07:59:38.189Z,22.49
2018-07-07T08:02:06.770Z,22.62
2018-07-07T08:04:35.435Z,22.77
2018-07-07T08:07:04.081Z,22.87
2018-07-07T08:09:32.592Z,22.72
2018-07-07T08:12:01.192Z,22.76
2018-07-07T08:14:29.889Z,22.70
2018-07-07T08:16:58.395Z,22.37
2018-07-07T08:19:27.478Z,22.35
2018-07-07T08:21:56.099Z,22.43
2018-07-07T08:24:24.736Z,22.56
2018-07-07T08:26:53.479Z,22.69
2018-07-07T08:29:22.105Z,22.76
2018-07-07T08:31:50.632Z,22.83
2018-07-07T08:34:19.182Z,22.79
2018-07-07T08:36:47.852Z,22.83
2018-07-07T08:39:16.433Z,22.82
2018-07-07T08:41:45.023Z,22.78
2018-07-07T08:44:13.644Z,22.85
2018-07-07T08:46:42.284Z,23.06
2018-07-07T08:49:10.824Z,23.08
2018-07-07T08:51:39.452Z,23.21
2018-07-07T08:54:07.958Z,23.27
2018-07-07T08:56:36.459Z,23.44
2018-07-07T08:59:04.974Z,23.62
2018-07-07T09:01:33.458Z,23.77
2018-07-07T09:04:01.996Z,23.90
2018-07-07T09:06:30.696Z,24.17
2018-07-07T09:08:59.432Z,24.33
2018-07-07T09:11:27.936Z,24.10
2018-07-07T09:13:56.493Z,24.37
2018-07-07T09:16:25.077Z,24.60
2018-07-07T09:18:53.584Z,24.55
2018-07-07T09:21:22.279Z,24.57
2018-07-07T09:23:50.929Z,24.80
2018-07-07T09:26:19.504Z,24.97
2018-07-07T09:28:48.096Z,25.07
2018-07-07T09:31:16.595Z,25.10
2018-07-07T09:33:45.116Z,24.79
2018-07-07T09:36:13.738Z,24.61
2018-07-07T09:38:42.460Z,24.57
2018-07-07T09:41:11.006Z,24.55
2018-07-07T09:43:39.794Z,24.48
2018-07-07T09:46:08.308Z,24.60
2018-07-07T09:48:36.915Z,24.62
2018-07-07T09:51:05.549Z,24.66
2018-07-07T09:53:34.229Z,24.56
2018-07-07T09:56:02.810Z,24.66
2018-07-07T09:58:31.394Z,24.84
2018-07-07T10:01:00.088Z,24.90
2018-07-07T10:03:28.619Z,24.99
2018-07-07T10:05:57.187Z,25.11
2018-07-07T10:08:25.828Z,25.30
2018-07-07T10:10:54.410Z,25.32
2018-07-07T10:13:23.023Z,25.23
2018-07-07T10:15:51.510Z,25.12
2018-07-07T10:18:20.160Z,25.10
2018-07-07T10:20:48.783Z,25.22
2018-07-07T10:23:17.201Z,25.27
2018-07-07T10:25:45.907Z,25.41
2018-07-07T10:28:14.476Z,25.55
2018-07-07T10:30:43.071Z,25.73
2018-07-07T10:33:11.656Z,25.80
2018-07-07T10:35:40.239Z,25.95
2018-07-07T10:38:08.932Z,26.23
2018-07-07T10:40:37.657Z,25.99
2018-07-07T10:43:06.647Z,25.95
2018-07-07T10:45:35.230Z,26.04
2018-07-07T10:48:03.871Z,25.74
2018-07-07T10:50:32.819Z,25.85
2018-07-07T10:53:01.480Z,26.11
2018-07-07T10:55:30.293Z,26.06
2018-07-07T10:57:58.816Z,26.15
2018-07-07T11:00:27.407Z,26.08
2018-07-07T11:02:55.945Z,26.40
2018-07-07T11:05:24.462Z,26.59
2018-07-07T11:07:53.149Z,26.31
2018-07-07T11:10:21.744Z,26.40
2018-07-07T11:12:50.266Z,26.61
2018-07-07T11:15:18.896Z,26.76
2018-07-07T11:17:47.552Z,26.97
2018-07-07T11:20:16.166Z,26.83
2018-07-07T11:22:44.696Z,26.58
2018-07-07T11:25:13.331Z,26.31
2018-07-07T11:27:41.843Z,26.23
2018-07-07T11:30:10.501Z,25.90
2018-07-07T11:32:39.079Z,25.88
2018-07-07T11:35:07.664Z,26.02
2018-07-07T11:37:36.250Z,26.13
2018-07-07T11:40:04.871Z,26.14
2018-07-07T11:42:33.530Z,26.05
2018-07-07T11:45:02.307Z,26.39
2018-07-07T11:47:31.038Z,26.54
2018-07-07T11:49:59.570Z,26.19
2018-07-07T11:52:28.319Z,26.32
2018-07-07T11:54:56.954Z,26.63
2018-07-07T11:57:25.524Z,26.63
2018-07-07T11:59:54.067Z,26.60
2018-07-07T12:02:23.409Z,26.11
2018-07-07T12:04:52.001Z,26.12
2018-07-07T12:07:20.662Z,26.28
2018-07-07T12:09:49.360Z,26.35
2018-07-07T12:12:18.046Z,26.41
2018-07-07T12:14:46.935Z,26.46
2018-07-07T12:17:15.435Z,26.27
2018-07-07T12:19:44.103Z,25.95
2018-07-07T12:22:12.607Z,25.59
2018-07-07T12:24:41.197Z,25.61
2018-07-07T12:27:09.746Z,25.87
2018-07-07T12:29:38.375Z,25.98
2018-07-07T12:32:07.015Z,26.08
2018-07-07T12:34:35.605Z,25.94
2018-07-07T12:37:04.180Z,25.93
2018-07-07T12:39:32.866Z,26.12
2018-07-07T12:42:01.387Z,25.90
2018-07-07T12:44:30.055Z,25.86
2018-07-07T12:46:58.619Z,25.43
2018-07-07T12:49:27.198Z,25.47
2018-07-07T12:51:56.097Z,25.71
2018-07-07T12:54:26.689Z,25.70
2018-07-07T12:56:55.366Z,25.70
2018-07-07T12:59:23.906Z,25.93
2018-07-07T13:01:52.571Z,26.05
2018-07-07T13:04:21.102Z,26.04
2018-07-07T13:06:49.654Z,26.24
2018-07-07T13:09:18.158Z,26.05
2018-07-07T13:11:46.798Z,26.15
2018-07-07T13:14:16.100Z,26.07
2018-07-07T13:16:44.750Z,25.92
2018-07-07T13:19:13.366Z,26.01
2018-07-07T13:21:56.490Z,26.09
2018-07-07T13:24:25.146Z,25.98
2018-07-07T13:26:53.655Z,25.97
2018-07-07T13:29:22.287Z,25.79
2018-07-07T13:31:50.791Z,25.97
2018-07-07T13:34:19.414Z,25.79
2018-07-07T13:36:47.935Z,25.86
2018-07-07T13:39:16.481Z,25.93
2018-07-07T13:41:44.991Z,25.91
2018-07-07T13:44:13.939Z,26.03
2018-07-07T13:46:42.527Z,26.01
2018-07-07T13:49:11.108Z,25.78
2018-07-07T13:51:39.760Z,25.86
2018-07-07T13:54:08.247Z,25.96
2018-07-07T13:56:36.807Z,26.02
2018-07-07T13:59:05.438Z,26.09
2018-07-07T14:01:33.962Z,25.81
2018-07-07T14:04:02.604Z,25.77
2018-07-07T14:06:31.290Z,25.88
2018-07-07T14:08:59.933Z,25.90
2018-07-07T14:11:28.544Z,25.87
2018-07-07T14:13:57.040Z,26.04
2018-07-07T14:16:25.553Z,25.94
2018-07-07T14:18:54.103Z,26.05
2018-07-07T14:21:22.734Z,25.84
2018-07-07T14:23:51.372Z,26.04
2018-07-07T14:26:19.903Z,25.88
2018-07-07T14:28:48.420Z,26.02
2018-07-07T14:31:17.005Z,26.02
2018-07-07T14:33:45.539Z,25.89
2018-07-07T14:36:14.135Z,25.84
2018-07-07T14:38:42.811Z,25.73
2018-07-07T14:41:19.755Z,25.87
2018-07-07T14:43:58.378Z,25.84
2018-07-07T14:46:27.458Z,25.41
2018-07-07T14:48:56.103Z,25.57
2018-07-07T14:51:24.733Z,25.16
2018-07-07T14:53:53.528Z,25.46
2018-07-07T14:56:23.089Z,25.45
2018-07-07T14:58:51.953Z,25.20
2018-07-07T15:01:20.547Z,25.25
2018-07-07T15:03:49.792Z,25.17
2018-07-07T15:06:18.809Z,25.07
2018-07-07T15:08:47.336Z,25.12
2018-07-07T15:11:16.235Z,25.19
2018-07-07T15:13:47.297Z,25.22
2018-07-07T15:16:16.289Z,25.35
2018-07-07T15:18:46.028Z,25.35
2018-07-07T15:21:15.348Z,25.29
2018-07-07T15:23:44.584Z,25.06
2018-07-07T15:26:13.243Z,25.25
2018-07-07T15:28:42.227Z,25.12
2018-07-07T15:31:10.799Z,25.17
2018-07-07T15:33:39.751Z,25.03
2018-07-07T15:36:08.384Z,25.14
2018-07-07T15:38:37.167Z,25.07
2018-07-07T15:41:05.806Z,25.16
2018-07-07T15:43:34.813Z,25.12
2018-07-07T15:46:03.499Z,24.87
2018-07-07T15:48:32.851Z,24.81
2018-07-07T15:51:02.644Z,24.85
2018-07-07T15:53:31.177Z,24.73
2018-07-07T15:56:00.257Z,23.75
2018-07-07T15:58:28.958Z,25.35
2018-07-07T16:00:57.507Z,25.42
2018-07-07T16:03:26.173Z,25.48
2018-07-07T16:05:54.763Z,25.12
2018-07-07T16:08:23.290Z,24.90
2018-07-07T16:10:51.975Z,25.12
2018-07-07T16:13:25.064Z,25.03
2018-07-07T16:15:53.649Z,25.19
2018-07-07T16:18:22.283Z,25.03
2018-07-07T16:20:50.779Z,24.93
2018-07-07T16:23:19.908Z,25.15
2018-07-07T16:25:48.418Z,25.03
2018-07-07T16:28:17.073Z,24.96
2018-07-07T16:30:45.656Z,24.91
2018-07-07T16:33:14.184Z,24.87
2018-07-07T16:35:42.823Z,24.78
2018-07-07T16:38:11.356Z,24.93
2018-07-07T16:40:40.025Z,24.97
2018-07-07T16:43:08.986Z,24.85
2018-07-07T16:45:37.730Z,24.78
2018-07-07T16:48:06.407Z,24.67
2018-07-07T16:50:35.099Z,24.44
2018-07-07T16:53:03.799Z,24.36
2018-07-07T16:55:32.452Z,24.55
2018-07-07T16:58:01.251Z,24.59
2018-07-07T17:00:30.077Z,24.60
2018-07-07T17:02:59.448Z,24.37
2018-07-07T17:05:28.186Z,24.08
2018-07-07T17:07:57.139Z,23.96
2018-07-07T17:10:26.056Z,24.05
2018-07-07T17:12:54.653Z,23.92
2018-07-07T17:15:23.274Z,23.82
2018-07-07T17:17:52.225Z,23.44
2018-07-07T17:20:20.853Z,23.42
2018-07-07T17:22:50.289Z,23.41
2018-07-07T17:25:18.859Z,23.49
2018-07-07T17:27:47.902Z,23.62
2018-07-07T17:30:16.723Z,23.58
2018-07-07T17:32:45.349Z,23.62
2018-07-07T17:35:14.441Z,23.57
2018-07-07T17:37:43.194Z,23.55
2018-07-07T17:40:12.393Z,23.37
2018-07-07T17:42:41.521Z,23.45
2018-07-07T17:45:10.376Z,23.45
2018-07-07T17:47:39.063Z,23.42
2018-07-07T17:50:07.891Z,23.38
2018-07-07T17:52:36.988Z,23.34
2018-07-07T17:55:07.413Z,23.15
2018-07-07T17:57:37.126Z,23.14
2018-07-07T18:00:05.911Z,23.14
2018-07-07T18:02:34.698Z,23.07
2018-07-07T18:05:03.507Z,22.97
2018-07-07T18:07:32.171Z,22.94
2018-07-07T18:10:00.803Z,23.03
2018-07-07T18:12:29.436Z,22.92
2018-07-07T18:14:57.963Z,22.83
2018-07-07T18:17:26.516Z,22.68
2018-07-07T18:19:55.086Z,22.58
2018-07-07T18:22:23.655Z,22.47
2018-07-07T18:24:52.455Z,22.48
2018-07-07T18:27:21.032Z,22.47
2018-07-07T18:29:49.617Z,22.38
2018-07-07T18:32:18.310Z,22.30
2018-07-07T18:34:46.989Z,22.31
2018-07-07T18:37:15.881Z,22.26
2018-07-07T18:39:44.634Z,22.20
2018-07-07T18:42:13.249Z,22.13
2018-07-07T18:44:41.832Z,22.03
2018-07-07T18:47:10.486Z,21.92
2018-07-07T18:49:40.129Z,21.95
2018-07-07T18:52:08.707Z,21.92
2018-07-07T18:54:37.331Z,21.92
2018-07-07T18:57:05.874Z,21.87
2018-07-07T18:59:34.503Z,21.80
2018-07-07T19:02:03.307Z,21.78
2018-07-07T19:04:31.856Z,21.75
2018-07-07T19:07:00.399Z,21.69
2018-07-07T19:09:28.931Z,21.55
2018-07-07T19:11:57.574Z,21.54
2018-07-07T19:14:26.427Z,21.43
2018-07-07T19:16:55.847Z,21.34
2018-07-07T19:19:24.820Z,21.28
2018-07-07T19:21:58.475Z,21.25
2018-07-07T19:24:32.247Z,21.24
2018-07-07T19:27:04.383Z,21.21
2018-07-07T19:29:33.172Z,21.16
2018-07-07T19:32:07.476Z,21.08
2018-07-07T19:34:41.447Z,21.02
2018-07-07T19:37:14.802Z,21.02
2018-07-07T19:39:44.107Z,21.03
2018-07-07T19:42:12.671Z,20.97
2018-07-07T19:44:41.183Z,20.55
2018-07-07T19:47:10.138Z,20.89
2018-07-07T19:49:39.725Z,20.86
2018-07-07T19:52:08.756Z,20.79
2018-07-07T19:54:37.459Z,20.74
2018-07-07T19:57:06.060Z,20.73
2018-07-07T19:59:34.955Z,20.65
2018-07-07T20:02:03.636Z,20.62
2018-07-07T20:04:32.199Z,20.55
2018-07-07T20:07:00.805Z,20.49
2018-07-07T20:09:29.488Z,20.46
2018-07-07T20:11:58.172Z,20.45
2018-07-07T20:14:27.489Z,20.38
2018-07-07T20:17:03.915Z,20.34
2018-07-07T20:19:43.787Z,20.31
2018-07-07T20:22:12.558Z,20.24
2018-07-07T20:24:41.262Z,20.21
2018-07-07T20:27:15.171Z,20.22
2018-07-07T20:29:43.768Z,20.15
2018-07-07T20:32:17.557Z,20.12
2018-07-07T20:34:47.258Z,20.10
2018-07-07T20:37:15.777Z,20.07
2018-07-07T20:39:44.524Z,20.01
2018-07-07T20:42:13.218Z,19.98
2018-07-07T20:44:41.764Z,19.92
2018-07-07T20:47:10.382Z,19.90
2018-07-07T20:49:38.958Z,19.81
2018-07-07T20:52:07.568Z,19.77
2018-07-07T20:54:36.260Z,19.72
2018-07-07T20:57:05.129Z,19.70
2018-07-07T20:59:33.715Z,19.67
2018-07-07T21:02:02.461Z,19.60
2018-07-07T21:04:31.079Z,19.53
2018-07-07T21:06:59.631Z,19.49
2018-07-07T21:09:28.245Z,19.45
2018-07-07T21:11:56.895Z,19.41
2018-07-07T21:14:25.479Z,19.40
2018-07-07T21:16:54.198Z,19.36
2018-07-07T21:19:22.784Z,19.31
2018-07-07T21:21:51.470Z,19.27
2018-07-07T21:24:20.048Z,19.24
2018-07-07T21:26:48.611Z,19.20
2018-07-07T21:29:17.212Z,19.15
2018-07-07T21:31:45.798Z,19.11
2018-07-07T21:34:14.483Z,19.06
2018-07-07T21:36:43.128Z,19.06
2018-07-07T21:39:11.756Z,19.01
2018-07-07T21:41:40.380Z,19.00
2018-07-07T21:44:08.908Z,18.95
2018-07-07T21:46:38.218Z,18.93
2018-07-07T21:49:06.788Z,18.88
2018-07-07T21:51:35.358Z,18.84
2018-07-07T21:54:04.036Z,18.72
2018-07-07T21:56:32.650Z,18.74
2018-07-07T21:59:06.393Z,18.70
2018-07-07T22:02:03.326Z,18.62
2018-07-07T22:04:37.098Z,18.54
2018-07-07T22:07:12.338Z,18.47
2018-07-07T22:09:41.340Z,18.43
2018-07-07T22:12:09.967Z,18.32
2018-07-07T22:14:38.727Z,18.31
2018-07-07T22:17:07.396Z,18.29
2018-07-07T22:19:35.915Z,18.27
2018-07-07T22:22:06.499Z,18.25
2018-07-07T22:24:35.300Z,18.19
2018-07-07T22:27:07.029Z,18.19
2018-07-07T22:29:35.737Z,18.14
2018-07-07T22:32:05.945Z,18.09
2018-07-07T22:34:38.742Z,18.04
2018-07-07T22:37:07.729Z,17.98
2018-07-07T22:39:39.698Z,17.95
2018-07-07T22:42:09.723Z,17.90
2018-07-07T22:44:39.110Z,17.86
2018-07-07T22:47:07.693Z,17.83
2018-07-07T22:49:36.276Z,17.81
2018-07-07T22:52:06.639Z,17.75
2018-07-07T22:54:35.391Z,17.66
2018-07-07T22:57:04.073Z,17.60
2018-07-07T22:59:32.596Z,17.53
2018-07-07T23:02:01.239Z,17.48
2018-07-07T23:04:29.924Z,17.46
2018-07-07T23:06:58.509Z,17.39
2018-07-07T23:09:27.093Z,17.33
2018-07-07T23:11:55.622Z,17.28
2018-07-07T23:14:24.199Z,17.29
2018-07-07T23:16:52.835Z,17.27
2018-07-07T23:19:21.473Z,17.24
2018-07-07T23:21:49.989Z,17.19
2018-07-07T23:24:18.519Z,17.20
2018-07-07T23:26:47.015Z,17.16
2018-07-07T23:29:15.548Z,17.09
2018-07-07T23:31:44.071Z,17.08
2018-07-07T23:34:12.659Z,17.04
2018-07-07T23:36:41.189Z,17.03
2018-07-07T23:39:09.778Z,17.00
2018-07-07T23:41:38.474Z,16.97
2018-07-07T23:44:07.091Z,16.95
2018-07-07T23:46:35.671Z,16.93
2018-07-07T23:49:04.317Z,16.89
2018-07-07T23:51:32.872Z,16.82
2018-07-07T23:54:01.423Z,16.74
2018-07-07T23:56:30.006Z,16.66
2018-07-07T23:58:58.603Z,16.60
